Time;durP1;ratioP1;P1;durP2;ratioP2;P2;SDS_P1;SDS_P2;PMS_P1;PMS_P2;Temp;Humidity;BMP_temperature;BMP_pressure;BME280_temperature;BME280_humidity;BME280_pressure;Samples;Min_cycle;Max_cycle;Signal;HPM_P1;HPM_P2
2022/12/08 00:01:38;;;;;;;20.60;18.55;;;;;;;0.18;90.60;95385.78;5086750;28;20067;-68
2022/12/08 00:04:04;;;;;;;23.15;20.73;;;;;;;0.10;90.82;95380.16;5081624;28;20028;-60
2022/12/08 00:09:33;;;;;;;20.42;18.42;;;;;;;-0.21;92.53;95366.34;5086666;28;20504;-60
2022/12/08 00:12:15;;;;;;;20.85;18.67;;;;;;;-0.10;92.91;95364.00;5094036;28;20042;-60
2022/12/08 00:14:43;;;;;;;20.02;17.95;;;;;;;-0.26;93.30;95360.59;5077646;28;20477;-60
2022/12/08 00:17:10;;;;;;;22.05;18.25;;;;;;;-0.34;93.45;95358.41;5082499;28;20057;-60
2022/12/08 00:19:37;;;;;;;20.05;17.95;;;;;;;-0.27;93.08;95348.56;5082053;28;20070;-64
2022/12/08 00:22:04;;;;;;;18.15;16.25;;;;;;;-0.31;91.96;95346.16;5084495;28;20042;-57
2022/12/08 00:24:33;;;;;;;17.20;15.52;;;;;;;-0.39;92.63;95334.56;5086810;28;20131;-57
2022/12/08 00:26:59;;;;;;;18.13;16.30;;;;;;;-0.46;92.88;95341.81;5078514;28;20572;-56
2022/12/08 00:29:25;;;;;;;17.67;15.88;;;;;;;-0.51;92.79;95323.94;5084629;28;20020;-58
2022/12/08 00:31:50;;;;;;;17.67;15.70;;;;;;;-0.52;93.47;95326.63;5084818;28;20374;-57
2022/12/08 00:34:16;;;;;;;17.38;15.68;;;;;;;-0.54;93.11;95321.53;5086926;28;20093;-57
2022/12/08 00:36:42;;;;;;;18.08;16.20;;;;;;;-0.51;93.27;95326.53;5090287;28;20515;-58
2022/12/08 00:39:08;;;;;;;18.88;17.08;;;;;;;-0.52;93.81;95317.09;5088267;28;20035;-60
2022/12/08 00:44:17;;;;;;;18.98;17.17;;;;;;;-0.47;93.71;95329.78;5081175;28;20039;-64
2022/12/08 00:46:43;;;;;;;18.80;16.90;;;;;;;-0.41;93.91;95323.47;5085251;28;20024;-65
2022/12/08 00:49:09;;;;;;;17.75;16.15;;;;;;;-0.42;93.06;95332.97;5082079;28;20229;-65
2022/12/08 00:51:34;;;;;;;19.02;17.23;;;;;;;-0.46;93.46;95321.94;5080565;28;20056;-65
2022/12/08 00:54:00;;;;;;;21.90;19.52;;;;;;;-0.50;93.11;95323.03;5080302;28;20026;-65
2022/12/08 00:56:26;;;;;;;19.58;17.73;;;;;;;-0.48;93.74;95333.31;5081156;28;20036;-60
2022/12/08 00:58:51;;;;;;;18.65;17.00;;;;;;;-0.45;93.84;95323.59;5085279;28;20027;-59
2022/12/08 01:01:17;;;;;;;19.15;17.25;;;;;;;-0.46;94.08;95321.13;5083300;28;20082;-59
2022/12/08 01:03:42;;;;;;;18.48;16.67;;;;;;;-0.45;94.53;95322.78;5077275;28;20047;-58
2022/12/08 01:06:08;;;;;;;19.58;17.58;;;;;;;-0.46;95.04;95321.94;5083264;28;20095;-58
2022/12/08 01:08:38;;;;;;;19.90;17.80;;;;;;;-0.44;95.99;95327.03;5083946;28;20034;-58
2022/12/08 01:11:08;;;;;;;18.88;17.08;;;;;;;-0.44;96.99;95329.63;5079465;28;20012;-58
2022/12/08 01:13:34;;;;;;;20.08;17.92;;;;;;;-0.44;96.90;95319.28;5082677;28;20032;-56
2022/12/08 01:15:59;;;;;;;20.08;18.08;;;;;;;-0.46;95.75;95319.34;5086366;28;20019;-68
2022/12/08 01:18:26;;;;;;;20.00;17.73;;;;;;;-0.45;95.38;95322.78;5081913;28;20016;-66
2022/12/08 01:20:51;;;;;;;19.67;17.67;;;;;;;-0.45;95.03;95320.19;5084040;28;20080;-66
2022/12/08 01:23:16;;;;;;;20.23;18.33;;;;;;;-0.45;95.27;95317.63;5081354;28;20474;-66
2022/12/08 01:25:42;;;;;;;20.67;18.55;;;;;;;-0.47;95.46;95314.28;5095889;28;20529;-65
2022/12/08 01:28:07;;;;;;;17.75;16.02;;;;;;;-0.45;95.18;95321.00;5088716;28;20039;-66
2022/12/08 01:30:33;;;;;;;17.60;15.80;;;;;;;-0.52;94.15;95311.13;5080879;28;20472;-65
2022/12/08 01:32:58;;;;;;;18.27;16.50;;;;;;;-0.56;93.79;95320.78;5083240;28;20024;-66
2022/12/08 01:35:23;;;;;;;18.50;16.55;;;;;;;-0.59;94.68;95321.78;5073135;28;20033;-59
2022/12/08 01:37:49;;;;;;;18.80;17.02;;;;;;;-0.47;94.00;95322.03;5088522;28;20043;-62
2022/12/08 01:40:15;;;;;;;18.83;17.02;;;;;;;-0.38;92.20;95313.75;5082531;28;20028;-56
2022/12/08 01:42:40;;;;;;;18.88;16.95;;;;;;;-0.37;90.99;95323.19;5081861;28;20078;-57
2022/12/08 01:45:13;;;;;;;17.42;15.55;;;;;;;-0.36;90.42;95322.28;5086244;28;20016;-58
2022/12/08 01:47:48;;;;;;;17.50;15.70;;;;;;;-0.29;91.82;95317.59;5086159;28;20028;-58
2022/12/08 01:50:17;;;;;;;14.80;13.40;;;;;;;-0.45;91.78;95315.03;5084144;28;20050;-57
2022/12/08 01:52:56;;;;;;;14.48;13.07;;;;;;;-0.51;91.80;95307.63;5086344;28;20031;-56
2022/12/08 01:55:45;;;;;;;13.15;11.95;;;;;;;-0.26;90.36;95301.09;5072824;28;20110;-61
2022/12/08 01:58:24;;;;;;;14.77;13.35;;;;;;;-0.39;90.36;95298.34;5080787;28;20032;-66
2022/12/08 02:00:50;;;;;;;15.13;13.73;;;;;;;-0.48;90.07;95307.44;5085382;28;20024;-67
2022/12/08 02:03:22;;;;;;;17.15;15.55;;;;;;;-0.57;92.21;95308.78;5084641;28;20447;-66
2022/12/08 02:05:48;;;;;;;16.85;15.32;;;;;;;-0.60;92.36;95309.75;5088542;28;20393;-66
2022/12/08 02:08:13;;;;;;;17.10;15.43;;;;;;;-0.62;93.69;95305.59;5079406;28;20044;-66
2022/12/08 02:10:41;;;;;;;17.85;16.05;;;;;;;-0.62;95.72;95311.59;5083027;28;20067;-66
2022/12/08 02:13:11;;;;;;;16.35;14.75;;;;;;;-0.64;94.17;95303.09;5084483;28;20567;-66
2022/12/08 02:16:09;;;;;;;16.58;14.88;;;;;;;-0.62;93.34;95314.19;5082224;28;20498;-62
2022/12/08 02:18:48;;;;;;;16.15;14.45;;;;;;;-0.62;94.20;95311.59;5070348;28;20510;-65
2022/12/08 02:21:20;;;;;;;16.10;14.50;;;;;;;-0.63;94.47;95309.13;5073455;28;20032;-65
2022/12/08 02:24:18;;;;;;;16.70;15.13;;;;;;;-0.62;94.67;95308.19;5077314;28;20028;-65
2022/12/08 02:27:25;;;;;;;17.30;15.43;;;;;;;-0.64;93.50;95302.28;5082374;28;20409;-66
2022/12/08 02:30:11;;;;;;;16.67;14.98;;;;;;;-0.65;93.93;95293.66;5076161;28;20016;-65
2022/12/08 02:32:39;;;;;;;16.20;14.70;;;;;;;-0.65;94.31;95283.31;5075249;28;20108;-68
2022/12/08 02:35:49;;;;;;;17.13;15.43;;;;;;;-0.68;92.92;95288.66;5083281;28;20077;-62
2022/12/08 02:38:39;;;;;;;17.90;16.10;;;;;;;-0.68;95.97;95270.56;5092544;28;20127;-65
2022/12/08 02:41:45;;;;;;;16.48;14.77;;;;;;;-0.71;94.61;95270.75;5088789;28;20032;-66
2022/12/08 02:44:18;;;;;;;16.80;15.10;;;;;;;-0.71;94.86;95260.41;5077482;28;20047;-65
2022/12/08 02:46:54;;;;;;;17.17;15.38;;;;;;;-0.70;94.39;95266.38;5081811;28;20027;-65
2022/12/08 02:49:19;;;;;;;15.82;14.30;;;;;;;-0.70;93.90;95261.22;5077066;28;20028;-65
2022/12/08 02:51:45;;;;;;;15.85;14.35;;;;;;;-0.72;94.13;95253.56;5084862;28;20032;-66
2022/12/08 02:54:12;;;;;;;14.77;13.27;;;;;;;-0.71;93.88;95260.41;5082816;28;20020;-58
2022/12/08 02:57:14;;;;;;;15.55;13.95;;;;;;;-0.72;93.63;95262.13;5088678;28;20103;-66
2022/12/08 02:59:58;;;;;;;15.98;14.23;;;;;;;-0.74;93.14;95256.22;5093853;28;20035;-65
2022/12/08 03:02:57;;;;;;;16.33;14.73;;;;;;;-0.76;95.58;95247.72;5081724;28;20103;-65
2022/12/08 03:05:50;;;;;;;16.38;14.68;;;;;;;-0.75;97.71;95246.78;5082636;28;20039;-65
2022/12/08 03:08:21;;;;;;;14.30;12.90;;;;;;;-0.74;97.17;95245.88;5081157;28;20436;-66
2022/12/08 03:10:56;;;;;;;14.95;13.55;;;;;;;-0.75;97.53;95248.56;5080683;28;20094;-65
2022/12/08 03:13:31;;;;;;;18.73;14.82;;;;;;;-0.80;95.81;95246.22;5083507;28;20024;-60
2022/12/08 03:15:59;;;;;;;20.50;15.95;;;;;;;-0.80;95.79;95241.03;5083312;28;20038;-65
2022/12/08 03:18:30;;;;;;;19.77;15.50;;;;;;;-0.80;95.45;95240.19;5083235;28;20040;-64
2022/12/08 03:20:56;;;;;;;16.52;14.82;;;;;;;-0.81;94.51;95238.53;5081682;28;20095;-65
2022/12/08 03:23:24;;;;;;;16.02;14.48;;;;;;;-0.69;95.13;95242.19;5077861;28;20025;-65
2022/12/08 03:26:02;;;;;;;14.63;13.20;;;;;;;-0.72;95.17;95232.88;5084800;28;20035;-65
2022/12/08 03:28:28;;;;;;;11.82;10.65;;;;;;;-0.68;94.03;95220.59;5063687;28;20406;-66
2022/12/08 03:30:58;;;;;;;12.02;10.93;;;;;;;-0.61;92.39;95220.16;5076782;28;20028;-65
2022/12/08 03:33:29;;;;;;;11.93;10.68;;;;;;;-0.72;92.71;95215.59;5080613;28;20082;-62
2022/12/08 03:35:55;;;;;;;11.07;10.07;;;;;;;-0.73;92.33;95223.44;5063611;28;20029;-61
2022/12/08 03:38:21;;;;;;;11.45;10.25;;;;;;;-0.77;92.35;95220.19;5090740;28;20044;-60
2022/12/08 03:41:17;;;;;;;11.50;10.45;;;;;;;-0.80;92.81;95220.38;5076414;28;20042;-60
2022/12/08 03:43:32;;;;;;;12.68;11.48;;;;;;;-0.94;93.35;95220.28;5082711;28;20401;-60
2022/12/08 03:45:57;;;;;;;12.23;11.13;;;;;;;-0.98;94.54;95218.78;5080585;28;20127;-61
2022/12/08 03:48:23;;;;;;;11.88;10.88;;;;;;;-0.98;94.74;95219.63;5081843;28;20055;-61
2022/12/08 03:50:48;;;;;;;11.57;10.48;;;;;;;-1.03;95.97;95219.03;5077661;28;20110;-60
2022/12/08 03:53:13;;;;;;;11.10;10.10;;;;;;;-1.07;94.91;95212.34;5086618;28;20051;-68
2022/12/08 03:55:39;;;;;;;10.73;9.60;;;;;;;-1.10;95.42;95210.78;5074107;28;20028;-62
2022/12/08 03:58:04;;;;;;;10.35;9.35;;;;;;;-1.18;95.24;95215.50;5081861;28;20072;-62
2022/12/08 04:00:29;;;;;;;11.27;10.05;;;;;;;-1.22;95.08;95220.00;5080201;28;20115;-62
2022/12/08 04:02:55;;;;;;;10.82;9.77;;;;;;;-1.26;94.73;95209.94;5080753;28;20024;-62
2022/12/08 04:05:20;;;;;;;10.80;9.77;;;;;;;-1.28;94.80;95210.00;5087203;28;20008;-62
2022/12/08 04:07:45;;;;;;;10.15;8.65;;;;;;;-1.31;95.27;95203.25;5077420;28;20477;-62
2022/12/08 04:10:11;;;;;;;10.73;9.77;;;;;;;-1.34;95.15;95200.81;5085655;28;20665;-65
2022/12/08 04:12:36;;;;;;;10.18;9.27;;;;;;;-1.36;95.64;95191.50;5088606;28;20397;-65
2022/12/08 04:15:02;;;;;;;9.45;8.65;;;;;;;-1.37;96.48;95187.25;5083023;28;20120;-62
2022/12/08 04:17:27;;;;;;;10.20;9.30;;;;;;;-1.38;97.00;95188.16;5086528;28;20024;-63
2022/12/08 04:19:52;;;;;;;9.73;8.88;;;;;;;-1.38;97.35;95194.16;5080166;28;20035;-62
2022/12/08 04:22:18;;;;;;;11.27;10.18;;;;;;;-1.34;96.69;95194.84;5080513;28;20107;-62
2022/12/08 04:24:43;;;;;;;11.82;10.68;;;;;;;-1.32;97.08;95180.94;5071775;28;20115;-62
2022/12/08 04:27:08;;;;;;;10.68;9.68;;;;;;;-1.39;96.64;95184.75;5084571;28;20028;-62
2022/12/08 04:29:34;;;;;;;10.57;9.68;;;;;;;-1.43;97.48;95179.84;5076383;28;20632;-59
2022/12/08 04:31:59;;;;;;;11.00;9.90;;;;;;;-1.46;97.24;95178.25;5081086;28;20453;-59
2022/12/08 04:34:24;;;;;;;10.88;9.75;;;;;;;-1.51;97.78;95178.47;5081214;28;20028;-59
2022/12/08 04:36:50;;;;;;;12.63;10.93;;;;;;;-1.54;97.89;95178.66;5084441;28;20056;-60
2022/12/08 04:39:15;;;;;;;11.65;10.63;;;;;;;-1.54;97.91;95181.22;5080491;28;20028;-60
2022/12/08 04:41:41;;;;;;;10.77;9.70;;;;;;;-1.53;99.43;95182.06;5074195;28;20020;-60
2022/12/08 04:44:06;;;;;;;10.73;9.77;;;;;;;-1.58;99.08;95177.97;5082518;28;20016;-60
2022/12/08 04:46:31;;;;;;;11.02;9.25;;;;;;;-1.58;99.04;95177.13;5081085;28;20020;-60
2022/12/08 04:48:57;;;;;;;10.52;9.52;;;;;;;-1.57;98.77;95178.81;5077968;28;20094;-68
2022/12/08 04:51:22;;;;;;;10.73;9.75;;;;;;;-1.60;99.38;95178.97;5084807;28;20024;-66
2022/12/08 04:53:48;;;;;;;10.20;9.20;;;;;;;-1.64;100.00;95180.88;5084965;28;20071;-66
2022/12/08 04:56:15;;;;;;;10.98;10.00;;;;;;;-1.68;100.00;95171.63;5087756;28;20020;-66
2022/12/08 04:58:40;;;;;;;11.00;10.00;;;;;;;-1.68;100.00;95176.78;5082714;28;20032;-66
2022/12/08 05:01:06;;;;;;;11.30;10.40;;;;;;;-1.71;100.00;95176.09;5079802;28;20039;-66
2022/12/08 05:03:31;;;;;;;11.82;10.73;;;;;;;-1.76;100.00;95168.63;5081830;28;20028;-66
2022/12/08 05:05:58;;;;;;;10.73;9.52;;;;;;;-1.78;100.00;95168.69;5082965;28;20032;-66
2022/12/08 05:08:24;;;;;;;10.85;9.68;;;;;;;-1.80;100.00;95170.53;5087593;28;20032;-58
2022/12/08 05:10:49;;;;;;;11.43;10.32;;;;;;;-1.81;100.00;95176.59;5093176;28;20460;-60
2022/12/08 05:13:15;;;;;;;11.30;10.15;;;;;;;-1.85;100.00;95172.50;5087735;28;20035;-59
2022/12/08 05:15:40;;;;;;;15.20;11.25;;;;;;;-1.89;100.00;95178.72;5083395;28;20020;-60
2022/12/08 05:18:06;;;;;;;12.43;10.18;;;;;;;-1.82;100.00;95168.91;5080508;28;20108;-60
2022/12/08 05:20:32;;;;;;;11.40;10.15;;;;;;;-1.87;100.00;95164.84;5082072;28;20068;-60
2022/12/08 05:22:57;;;;;;;9.68;8.57;;;;;;;-1.79;100.00;95161.00;5085105;28;21017;-60
2022/12/08 05:25:22;;;;;;;9.82;8.90;;;;;;;-1.95;100.00;95168.72;5077857;28;20478;-60
2022/12/08 05:27:48;;;;;;;9.63;8.70;;;;;;;-2.07;100.00;95171.03;5081186;28;20468;-58
2022/12/08 05:30:13;;;;;;;9.50;8.70;;;;;;;-2.12;100.00;95167.00;5084994;28;20070;-68
2022/12/08 05:32:38;;;;;;;9.27;8.40;;;;;;;-2.21;100.00;95169.16;5087471;28;20461;-67
2022/12/08 05:35:04;;;;;;;10.05;9.05;;;;;;;-2.24;100.00;95163.28;5076408;28;20043;-68
2022/12/08 05:37:30;;;;;;;10.35;9.45;;;;;;;-2.30;100.00;95151.53;5089249;28;20044;-67
2022/12/08 05:39:55;;;;;;;9.63;8.75;;;;;;;-2.32;100.00;95148.19;5082696;28;20035;-67
2022/12/08 05:42:20;;;;;;;9.70;8.80;;;;;;;-2.37;100.00;95145.84;5072786;28;20397;-67
2022/12/08 05:44:46;;;;;;;12.20;11.07;;;;;;;-2.40;100.00;95152.91;5084194;28;20111;-68
2022/12/08 05:47:11;;;;;;;12.23;11.13;;;;;;;-2.47;100.00;95149.81;5075027;28;20055;-61
2022/12/08 05:49:36;;;;;;;12.20;11.07;;;;;;;-2.53;100.00;95150.13;5082612;28;20054;-65
2022/12/08 05:52:02;;;;;;;11.63;10.52;;;;;;;-2.63;100.00;95142.81;5082558;28;20023;-66
2022/12/08 05:54:27;;;;;;;13.43;11.02;;;;;;;-2.68;100.00;95142.22;5085911;28;20486;-65
2022/12/08 05:56:52;;;;;;;13.02;11.63;;;;;;;-2.68;100.00;95139.63;5087254;28;20043;-65
2022/12/08 05:59:18;;;;;;;21.27;12.30;;;;;;;-2.70;100.00;95146.59;5084142;28;20031;-66
2022/12/08 06:01:43;;;;;;;17.52;12.75;;;;;;;-2.73;100.00;95144.19;5093272;28;20059;-66
2022/12/08 06:04:08;;;;;;;18.83;12.73;;;;;;;-2.77;100.00;95148.66;5079254;28;20064;-66
2022/12/08 06:06:34;;;;;;;18.98;13.40;;;;;;;-2.79;100.00;95149.63;5074801;28;20035;-64
2022/12/08 06:09:02;;;;;;;22.08;15.05;;;;;;;-2.80;100.00;95150.53;5069251;28;20107;-60
2022/12/08 06:11:29;;;;;;;22.95;15.73;;;;;;;-2.74;100.00;95145.09;5068831;28;20032;-61
2022/12/08 06:13:56;;;;;;;22.13;15.80;;;;;;;-2.79;100.00;95139.31;5070050;28;20070;-61
2022/12/08 06:16:23;;;;;;;24.65;15.65;;;;;;;-2.87;100.00;95144.84;5078192;28;20482;-60
2022/12/08 06:18:48;;;;;;;31.30;18.15;;;;;;;-2.95;100.00;95142.63;5080995;28;20024;-59
2022/12/08 06:21:15;;;;;;;25.75;17.70;;;;;;;-3.04;100.00;95143.06;5082736;28;20489;-59
2022/12/08 06:23:41;;;;;;;21.48;17.38;;;;;;;-3.09;100.00;95148.44;5086406;28;20021;-58
2022/12/08 06:26:12;;;;;;;22.13;16.02;;;;;;;-3.13;100.00;95148.66;5082850;28;20024;-61
2022/12/08 06:28:39;;;;;;;20.30;16.55;;;;;;;-3.19;100.00;95145.47;5080663;28;20105;-60
2022/12/08 06:31:10;;;;;;;28.60;16.95;;;;;;;-3.18;100.00;95146.28;5081898;28;20031;-60
2022/12/08 06:33:37;;;;;;;27.25;15.88;;;;;;;-3.17;100.00;95148.81;5082205;28;20035;-60
2022/12/08 06:36:04;;;;;;;23.98;17.10;;;;;;;-3.20;100.00;95142.94;5081295;28;20032;-60
2022/12/08 06:38:29;;;;;;;27.58;16.80;;;;;;;-3.26;100.00;95143.25;5083614;28;20059;-60
2022/12/08 06:40:55;;;;;;;26.95;17.90;;;;;;;-3.31;100.00;95146.03;5080171;28;20035;-60
2022/12/08 06:43:21;;;;;;;36.70;19.83;;;;;;;-3.36;100.00;95138.50;5079541;28;20486;-67
2022/12/08 06:45:47;;;;;;;26.92;19.10;;;;;;;-3.39;100.00;95154.09;5083340;28;20032;-67
2022/12/08 06:48:12;;;;;;;27.25;20.02;;;;;;;-3.40;100.00;95146.47;5079072;28;20031;-61
2022/12/08 06:50:38;;;;;;;25.63;18.65;;;;;;;-3.42;100.00;95143.94;5091200;28;20118;-61
2022/12/08 06:53:03;;;;;;;22.10;16.83;;;;;;;-3.45;100.00;95138.94;5087106;28;20028;-61
2022/12/08 06:55:28;;;;;;;20.80;17.02;;;;;;;-3.45;100.00;95136.38;5087827;28;20022;-62
2022/12/08 06:57:54;;;;;;;19.17;16.40;;;;;;;-3.46;100.00;95143.25;5085236;28;20541;-62
2022/12/08 07:00:19;;;;;;;20.67;16.35;;;;;;;-3.45;100.00;95131.22;5084010;28;20028;-62
2022/12/08 07:02:45;;;;;;;21.48;17.52;;;;;;;-3.49;100.00;95133.09;5069903;28;20031;-66
2022/12/08 07:05:10;;;;;;;29.33;18.40;;;;;;;-3.57;100.00;95137.75;5090995;28;20401;-65
2022/12/08 07:07:35;;;;;;;19.80;16.58;;;;;;;-3.62;100.00;95142.28;5083079;28;20081;-65
2022/12/08 07:10:01;;;;;;;27.23;16.33;;;;;;;-3.64;100.00;95136.38;5078468;28;20174;-65
2022/12/08 07:12:26;;;;;;;20.63;15.80;;;;;;;-3.61;100.00;95143.97;5081686;28;20033;-65
2022/12/08 07:14:51;;;;;;;31.10;15.60;;;;;;;-3.63;100.00;95149.16;5090510;28;20016;-65
2022/12/08 07:17:17;;;;;;;26.13;17.00;;;;;;;-3.61;100.00;95143.97;5082641;28;20040;-65
2022/12/08 07:19:42;;;;;;;53.17;21.25;;;;;;;-3.63;100.00;95143.19;5071829;28;20024;-65
2022/12/08 07:22:07;;;;;;;41.30;20.63;;;;;;;-3.64;100.00;95142.34;5085572;28;20028;-65
2022/12/08 07:24:33;;;;;;;35.70;19.10;;;;;;;-3.64;100.00;95146.69;5087543;28;20167;-58
2022/12/08 07:26:58;;;;;;;34.53;19.33;;;;;;;-3.67;100.00;95147.63;5091905;28;20024;-59
2022/12/08 07:29:23;;;;;;;36.47;21.92;;;;;;;-3.65;100.00;95139.84;5085029;28;20024;-60
2022/12/08 07:31:49;;;;;;;40.63;20.23;;;;;;;-3.68;100.00;95143.41;5080785;28;20028;-60
2022/12/08 07:34:14;;;;;;;34.28;20.08;;;;;;;-3.67;100.00;95146.78;5081539;28;20020;-59
2022/12/08 07:36:40;;;;;;;28.10;19.25;;;;;;;-3.70;100.00;95141.78;5080267;28;20047;-60
2022/12/08 07:39:05;;;;;;;36.20;21.08;;;;;;;-3.69;100.00;95140.88;5083796;28;20503;-60
2022/12/08 07:41:30;;;;;;;39.88;21.40;;;;;;;-3.70;100.00;95139.22;5088041;28;20020;-66
2022/12/08 07:43:56;;;;;;;32.13;20.75;;;;;;;-3.71;100.00;95137.53;5080671;28;20028;-60
2022/12/08 07:46:24;;;;;;;29.50;21.30;;;;;;;-3.70;100.00;95126.34;5085407;28;20036;-66
2022/12/08 07:48:51;;;;;;;26.10;19.85;;;;;;;-3.68;100.00;95127.97;5084622;28;20027;-65
2022/12/08 07:51:17;;;;;;;33.10;20.35;;;;;;;-3.69;100.00;95121.16;5084764;28;20030;-65
2022/12/08 07:53:44;;;;;;;26.33;18.55;;;;;;;-3.68;100.00;95116.81;5077482;28;20559;-65
2022/12/08 07:56:11;;;;;;;24.70;19.48;;;;;;;-3.67;100.00;95114.19;5074805;28;20036;-65
2022/12/08 07:58:37;;;;;;;33.17;21.42;;;;;;;-3.66;100.00;95109.84;5090689;28;20393;-65
2022/12/08 08:01:02;;;;;;;28.83;23.00;;;;;;;-3.65;100.00;95112.38;5081992;28;20032;-66
2022/12/08 08:03:28;;;;;;;32.83;23.00;;;;;;;-3.63;100.00;95120.84;5070030;28;20076;-60
2022/12/08 08:05:53;;;;;;;32.80;21.92;;;;;;;-3.62;100.00;95112.22;5076061;28;20442;-60
2022/12/08 08:08:19;;;;;;;31.38;20.38;;;;;;;-3.58;100.00;95118.09;5075710;28;20039;-61
2022/12/08 08:10:46;;;;;;;25.70;19.67;;;;;;;-3.50;100.00;95115.16;5080215;28;20015;-60
2022/12/08 08:13:11;;;;;;;30.13;20.88;;;;;;;-3.38;100.00;95113.75;5086106;28;20024;-60
2022/12/08 08:15:37;;;;;;;26.15;19.77;;;;;;;-3.28;100.00;95111.59;5078285;28;20490;-60
2022/12/08 08:18:02;;;;;;;28.30;20.58;;;;;;;-3.19;100.00;95106.84;5082879;28;20451;-60
2022/12/08 08:20:28;;;;;;;32.97;21.23;;;;;;;-3.13;100.00;95116.00;5085303;28;20111;-65
2022/12/08 08:22:53;;;;;;;34.42;21.52;;;;;;;-3.05;100.00;95105.34;5078775;28;20674;-61
2022/12/08 08:25:21;;;;;;;40.72;21.15;;;;;;;-3.03;100.00;95098.38;5087915;28;20071;-60
2022/12/08 08:27:47;;;;;;;31.42;20.80;;;;;;;-2.95;100.00;95087.69;5078371;28;20051;-61
2022/12/08 08:30:14;;;;;;;25.77;18.88;;;;;;;-2.86;100.00;95095.00;5079371;28;20043;-60
2022/12/08 08:32:39;;;;;;;26.27;19.40;;;;;;;-2.77;100.00;95088.53;5087645;28;20122;-60
2022/12/08 08:35:06;;;;;;;27.08;21.60;;;;;;;-2.67;100.00;95087.19;5084002;28;20777;-60
2022/12/08 08:37:31;;;;;;;33.10;22.75;;;;;;;-2.62;100.00;95086.97;5076708;28;20044;-60
2022/12/08 08:39:57;;;;;;;30.42;22.08;;;;;;;-2.59;100.00;95092.78;5076905;28;20020;-60
2022/12/08 08:42:22;;;;;;;34.80;25.30;;;;;;;-2.49;100.00;95087.19;5080447;28;20033;-60
2022/12/08 08:44:47;;;;;;;34.38;22.90;;;;;;;-2.37;100.00;95086.53;5083698;28;20016;-60
2022/12/08 08:47:13;;;;;;;25.77;21.17;;;;;;;-2.24;100.00;95091.09;5086563;28;20020;-60
2022/12/08 08:49:38;;;;;;;22.20;18.77;;;;;;;-2.16;100.00;95094.94;5087054;28;20021;-60
2022/12/08 08:52:05;;;;;;;21.90;19.05;;;;;;;-2.08;100.00;95093.69;5086421;28;20074;-60
2022/12/08 08:54:30;;;;;;;24.38;20.25;;;;;;;-2.00;100.00;95088.16;5079160;28;20033;-60
2022/12/08 08:56:57;;;;;;;24.02;19.75;;;;;;;-1.95;100.00;95088.72;5082319;28;20020;-60
2022/12/08 08:59:23;;;;;;;21.48;18.63;;;;;;;-1.92;100.00;95088.56;5084706;28;20038;-60
2022/12/08 09:01:48;;;;;;;23.23;18.67;;;;;;;-1.92;100.00;95096.31;5080365;28;20028;-55
2022/12/08 09:04:14;;;;;;;19.70;17.60;;;;;;;-1.92;100.00;95096.31;5084717;28;20020;-55
2022/12/08 09:06:39;;;;;;;21.67;18.65;;;;;;;-1.91;100.00;95097.97;5086302;28;20016;-56
2022/12/08 09:09:04;;;;;;;21.17;18.90;;;;;;;-1.92;100.00;95093.72;5078517;28;20038;-54
2022/12/08 09:11:31;;;;;;;26.10;19.88;;;;;;;-1.90;100.00;95099.63;5078570;28;20419;-55
2022/12/08 09:13:56;;;;;;;27.90;23.23;;;;;;;-1.81;100.00;95096.59;5079945;28;20078;-54
2022/12/08 09:16:22;;;;;;;26.35;22.70;;;;;;;-1.79;100.00;95093.91;5080826;28;20024;-56
2022/12/08 09:18:48;;;;;;;24.80;21.70;;;;;;;-1.71;100.00;95085.75;5076066;28;20024;-60
2022/12/08 09:21:19;;;;;;;23.45;20.63;;;;;;;-1.63;100.00;95088.78;5079909;28;20376;-63
2022/12/08 09:23:44;;;;;;;20.13;18.13;;;;;;;-1.63;100.00;95079.28;5072135;28;20814;-63
2022/12/08 09:26:09;;;;;;;24.20;19.05;;;;;;;-1.51;100.00;95079.53;5084259;28;20028;-63
2022/12/08 09:28:35;;;;;;;22.65;18.58;;;;;;;-1.30;100.00;95080.09;5085081;28;20511;-64
2022/12/08 09:31:01;;;;;;;20.60;18.15;;;;;;;-1.05;100.00;95081.31;5083717;28;20453;-65
2022/12/08 09:33:26;;;;;;;23.90;19.05;;;;;;;-0.74;100.00;95077.00;5075047;28;20378;-64
2022/12/08 09:35:51;;;;;;;33.05;24.50;;;;;;;-0.32;100.00;95078.03;5074962;28;20043;-66
2022/12/08 09:38:17;;;;;;;45.20;31.35;;;;;;;0.20;98.74;95080.16;5075294;28;20619;-62
2022/12/08 09:40:51;;;;;;;24.38;18.63;;;;;;;0.65;95.59;95086.00;5072334;28;20020;-62
2022/12/08 09:43:56;;;;;;;19.52;16.75;;;;;;;0.79;90.24;95082.56;5076371;28;20020;-61
2022/12/08 09:46:24;;;;;;;22.27;18.98;;;;;;;1.06;90.95;95086.06;5079718;28;20074;-61
2022/12/08 09:48:54;;;;;;;22.20;18.20;;;;;;;1.09;89.45;95083.28;5077838;28;20020;-61
2022/12/08 09:51:24;;;;;;;28.17;21.70;;;;;;;1.31;87.29;95084.47;5074415;28;20016;-62
2022/12/08 09:54:02;;;;;;;25.35;21.20;;;;;;;1.11;87.54;95082.25;5076401;28;20074;-61
2022/12/08 09:56:32;;;;;;;26.98;20.10;;;;;;;1.32;87.36;95083.53;5080975;28;20055;-69
2022/12/08 09:59:21;;;;;;;16.73;15.02;;;;;;;1.46;86.07;95080.06;5078959;28;20028;-69
2022/12/08 10:01:47;;;;;;;17.02;14.05;;;;;;;1.61;87.00;95070.44;5074184;28;20063;-69
2022/12/08 10:04:27;;;;;;;16.15;14.55;;;;;;;1.79;87.13;95070.94;5085331;28;20043;-68
2022/12/08 10:07:03;;;;;;;15.20;13.70;;;;;;;2.02;85.17;95076.34;5072366;28;20028;-68
2022/12/08 10:09:40;;;;;;;16.23;14.63;;;;;;;2.17;84.21;95072.72;5076208;28;20024;-69
2022/12/08 10:12:27;;;;;;;16.63;15.13;;;;;;;2.12;82.55;95072.19;5078477;28;20023;-69
2022/12/08 10:14:52;;;;;;;15.15;13.60;;;;;;;2.04;82.61;95069.28;5077563;28;20035;-69
2022/12/08 10:17:25;;;;;;;16.55;14.85;;;;;;;2.11;82.89;95065.34;5090638;28;20111;-60
2022/12/08 10:19:58;;;;;;;14.52;13.18;;;;;;;2.20;83.17;95059.50;5082140;28;20048;-67
2022/12/08 10:22:25;;;;;;;14.38;12.98;;;;;;;2.41;81.54;95046.78;5079888;28;20024;-67
2022/12/08 10:25:04;;;;;;;17.60;14.40;;;;;;;2.45;83.38;95031.81;5075233;28;20020;-68
2022/12/08 10:27:33;;;;;;;16.08;14.25;;;;;;;2.59;81.73;95023.03;5076524;28;20033;-66
2022/12/08 10:29:58;;;;;;;15.73;14.23;;;;;;;2.61;79.89;95022.94;5079725;28;20024;-66
2022/12/08 10:32:32;;;;;;;18.35;16.27;;;;;;;2.50;80.86;95011.53;5081644;28;20031;-66
2022/12/08 10:35:07;;;;;;;17.65;15.75;;;;;;;2.71;80.59;95006.56;5077573;28;20044;-63
2022/12/08 10:37:33;;;;;;;18.13;16.15;;;;;;;2.93;81.10;94997.22;5079211;28;20044;-61
2022/12/08 10:40:01;;;;;;;18.90;15.50;;;;;;;3.12;79.24;94990.66;5082411;28;20382;-62
2022/12/08 10:42:34;;;;;;;18.95;17.05;;;;;;;3.41;79.31;94985.88;5077936;28;20028;-63
2022/12/08 10:45:08;;;;;;;19.65;17.65;;;;;;;3.71;78.32;94984.50;5078589;28;20028;-62
2022/12/08 10:47:37;;;;;;;20.55;18.45;;;;;;;3.96;75.34;94984.38;5080808;28;20028;-63
2022/12/08 10:50:19;;;;;;;19.85;17.98;;;;;;;4.18;74.64;94982.72;5078820;28;20513;-63
2022/12/08 10:52:53;;;;;;;18.50;16.58;;;;;;;4.53;72.38;94969.53;5088110;28;20158;-63
2022/12/08 10:55:19;;;;;;;18.83;16.88;;;;;;;4.73;69.82;94970.53;5083171;28;20028;-65
2022/12/08 10:57:47;;;;;;;18.73;16.73;;;;;;;4.39;68.75;94959.38;5076786;28;20393;-61
2022/12/08 11:00:16;;;;;;;19.05;17.05;;;;;;;4.47;70.16;94966.56;5081253;28;20027;-61
2022/12/08 11:02:57;;;;;;;18.52;15.70;;;;;;;4.12;71.09;94961.41;5090037;28;21332;-62
2022/12/08 11:05:27;;;;;;;18.23;16.33;;;;;;;3.82;73.93;94956.81;5078261;28;20524;-61
2022/12/08 11:07:54;;;;;;;19.65;15.90;;;;;;;3.74;74.26;94957.41;5078227;28;20024;-61
2022/12/08 11:10:26;;;;;;;15.02;13.63;;;;;;;3.75;75.79;94961.66;5076089;28;20081;-61
2022/12/08 11:12:51;;;;;;;18.27;16.48;;;;;;;3.80;73.42;94958.69;5083532;28;20456;-59
2022/12/08 11:15:17;;;;;;;22.98;20.40;;;;;;;3.58;74.08;94969.00;5081851;28;20028;-60
2022/12/08 11:17:44;;;;;;;24.38;21.35;;;;;;;3.52;72.47;94959.03;5077843;28;20028;-68
2022/12/08 11:20:10;;;;;;;23.75;21.38;;;;;;;3.14;74.73;94947.97;5077218;28;20028;-69
2022/12/08 11:22:49;;;;;;;23.70;21.23;;;;;;;2.96;77.14;94954.53;5074443;28;20024;-69
2022/12/08 11:25:25;;;;;;;25.45;22.08;;;;;;;2.71;78.64;94949.38;5074602;28;20035;-68
2022/12/08 11:27:57;;;;;;;25.83;23.25;;;;;;;2.77;77.66;94953.31;5082244;28;20107;-68
2022/12/08 11:30:27;;;;;;;23.75;21.35;;;;;;;2.65;77.91;94949.00;5078809;28;20177;-69